Houston, Texas
Current Conditions -  °F | °C
As of 8:15 PM on Saturday 22 Nov 2014 (Local Time) from KMCJ Reporting Station
Overcast Overcast  
Wind Chill: 64°   Ceiling: 400
Heat Index: 64°   Visibility: 2.5mi
Dew Point: 64°   Wind: 13mph
Humidity: 100%   Direction: 120°ESE
Pressure: 29.77"   Gusts: 18mph
Location:  29.76°N, 95.37°W
Report Text: KMCJ 230215Z AUTO 12011G16KT 2 1/2SM BKN004 BKN009 OVC060 18/18 A2977 RMK AO1 P0003
Loading
Personal Weather Stations






























Interactive Weather Map New forecast layout! Learn more

10-Day Weather Forecast

Advertisements
Track Severe Weather on mobile